Christina O — C6FN7 — position and weather

sailwx.info

Track history (hours):
 
Tides and Currents Weather Stations Pressure Air Temp Water Temp Dewpoint Dewpoint Depression Visibility Wind Speed Wind Dir Waves Ship Positions

Christina O

Operator: V Ships Leisure SAM

Last reported at 2014-Jul-31 17:33 UTC. Time now 2014-Jul-31 17:41 UTC.
Position N 59°56' E 030°17'.

Length 186 m; draft 6.1 m.

Type: Ship. MMSI: 308322000.

Date/timePositionNaut miles runAvg speedWind from/ knotsBaromVisibWave heightAir tempDewpointWater temp
2014-Jul-31 17:33N 59°56' E 030°17'0 0.0
2014-Jul-31 16:33N 59°56' E 030°17'0 0.0
2014-Jul-31 15:33N 59°56' E 030°17'0 0.0
2014-Jul-31 14:33N 59°56' E 030°17'0 0.0
2014-Jul-31 13:33N 59°56' E 030°17'0 0.0
2014-Jul-31 12:33N 59°56' E 030°17'0 0.0
2014-Jul-31 11:33N 59°56' E 030°17'0 0.0
2014-Jul-31 10:33N 59°56' E 030°17'0 0.0
2014-Jul-31 09:33N 59°56' E 030°17'0 0.0
2014-Jul-31 08:33N 59°56' E 030°17'0 0.0
2014-Jul-31 07:33N 59°56' E 030°17'0 0.0
2014-Jul-31 06:33N 59°56' E 030°17'0 0.0
2014-Jul-31 05:33N 59°56' E 030°17'0 0.0
2014-Jul-31 04:33N 59°56' E 030°17'1 1.1
2014-Jul-31 03:33N 59°55' E 030°16'6 5.6
2014-Jul-31 02:26N 59°55' E 030°04'7711.2
2014-Jul-30 19:31N 60°06' E 027°30'1414.7
2014-Jul-30 18:33N 59°59' E 027°05'1413.9
2014-Jul-30 17:34N 59°60' E 026°38'1414.4
2014-Jul-30 16:33N 59°56' E 026°10'1413.9
2014-Jul-30 15:33N 59°52' E 025°43'1413.7
2014-Jul-30 14:31N 59°57' E 025°16'1212.4
2014-Jul-30 13:34N 60°04' E 024°58'5 0.2
2014-Jul-29 13:33N 60°10' E 024°58'7 7.2
2014-Jul-29 12:33N 60°03' E 024°58'1111.3
2014-Jul-29 11:33N 59°52' E 024°50'1212.1
2014-Jul-29 10:33N 59°45' E 024°31'1413.9
2014-Jul-29 09:33N 59°41' E 024°04'1413.6
2014-Jul-29 08:33N 59°36' E 023°39'1413.7
2014-Jul-29 07:33N 59°31' E 023°14'1413.8
2014-Jul-29 06:33N 59°27' E 022°48'4713.4
2014-Jul-29 03:04N 58°57' E 021°38'913.4
2014-Jul-29 02:22N 58°48' E 021°30'1113.6
2014-Jul-29 01:33N 58°38' E 021°20'1413.7
2014-Jul-29 00:33N 58°25' E 021°12'32 1.1
2014-Jul-27 18:33N 57°58' E 020°39'8014.5
2014-Jul-27 13:03N 57°40' E 018°13'2 2.5
2014-Jul-27 12:19N 57°38' E 018°16'0 0.0
2014-Jul-27 10:25N 57°38' E 018°16'0 0.0
2014-Jul-27 09:33N 57°38' E 018°16'0 0.0
2014-Jul-27 08:33N 57°38' E 018°16'0 0.0
2014-Jul-27 07:24N 57°38' E 018°16'0 0.0
2014-Jul-27 06:33N 57°38' E 018°16'0 0.0
2014-Jul-27 05:33N 57°38' E 018°16'7 6.8
2014-Jul-27 04:33N 57°43' E 018°07'3411.2
2014-Jul-27 01:29N 58°15' E 018°30'1011.1
2014-Jul-27 00:33N 58°25' E 018°37'1111.1
2014-Jul-26 23:33N 58°35' E 018°46'1111.2
2014-Jul-26 22:34N 58°45' E 018°55'1111.1
2014-Jul-26 21:33N 58°55' E 019°04'1111.0
2014-Jul-26 20:32N 59°06' E 019°10'33 7.6
2014-Jul-26 16:16N 59°20' E 018°13'3 3.8
2014-Jul-26 15:32N 59°21' E 018°08'0 0.0
2014-Jul-26 14:32N 59°21' E 018°08'0 0.0
2014-Jul-26 13:33N 59°21' E 018°08'0 0.0
2014-Jul-26 12:33N 59°21' E 018°08'0 0.0
2014-Jul-26 11:34N 59°21' E 018°08'0 0.0
2014-Jul-26 10:33N 59°21' E 018°08'0 0.0
2014-Jul-26 09:33N 59°21' E 018°08'0 0.0
2014-Jul-26 08:33N 59°21' E 018°08'0 0.0
2014-Jul-26 07:33N 59°21' E 018°08'0 0.0
2014-Jul-26 06:33N 59°21' E 018°08'0 0.0
2014-Jul-26 05:33N 59°21' E 018°08'0 0.0
2014-Jul-26 04:33N 59°21' E 018°08'0 0.0
2014-Jul-26 03:33N 59°21' E 018°08'0 0.0
2014-Jul-26 02:33N 59°21' E 018°08'0 0.0
2014-Jul-26 01:33N 59°21' E 018°08'0 0.0
2014-Jul-26 00:34N 59°21' E 018°08'0 0.0
2014-Jul-25 23:33N 59°21' E 018°08'0 0.0
2014-Jul-25 22:33N 59°21' E 018°08'0 0.0
2014-Jul-25 21:33N 59°21' E 018°08'0 0.0
2014-Jul-25 20:33N 59°21' E 018°08'0 0.0
2014-Jul-25 19:34N 59°21' E 018°08'0 0.0
2014-Jul-25 18:33N 59°21' E 018°08'0 0.0
2014-Jul-25 17:33N 59°21' E 018°08'2 2.0
2014-Jul-25 16:32N 59°19' E 018°05'0 0.0
2014-Jul-25 15:32N 59°19' E 018°05'0 0.0
2014-Jul-25 14:32N 59°19' E 018°05'0 0.0
2014-Jul-25 13:32N 59°19' E 018°05'0 0.0
2014-Jul-25 12:32N 59°19' E 018°05'0 0.0
2014-Jul-25 11:32N 59°19' E 018°05'0 0.0
2014-Jul-25 10:32N 59°19' E 018°05'0 0.0
2014-Jul-25 09:32N 59°19' E 018°05'0 0.0
2014-Jul-25 08:32N 59°19' E 018°05'0 0.0
2014-Jul-25 07:32N 59°19' E 018°05'0 0.0
2014-Jul-25 06:32N 59°19' E 018°05'0 0.0
2014-Jul-25 05:33N 59°19' E 018°05'8 8.2
2014-Jul-25 04:33N 59°23' E 018°20'6 5.3
2014-Jul-25 03:29N 59°26' E 018°29'1111.8
2014-Jul-25 02:33N 59°21' E 018°47'1312.7
2014-Jul-25 01:32N 59°14' E 019°09'1311.8
2014-Jul-25 00:24N 59°16' E 019°34'1011.7
2014-Jul-24 23:33N 59°18' E 019°53'1211.8
2014-Jul-24 22:33N 59°20' E 020°16'1211.8
2014-Jul-24 21:32N 59°22' E 020°39'1211.6
2014-Jul-24 20:33N 59°24' E 021°01'1111.7
2014-Jul-24 19:33N 59°26' E 021°24'1211.6
2014-Jul-24 18:33N 59°27' E 021°47'1211.8
2014-Jul-24 17:33N 59°29' E 022°09'1212.0
2014-Jul-24 16:33N 59°31' E 022°33'1111.4
2014-Jul-24 15:33N 59°34' E 022°54'1211.6
2014-Jul-24 14:33N 59°37' E 023°17'1211.7
2014-Jul-24 13:33N 59°40' E 023°39'1211.8
2014-Jul-24 12:33N 59°43' E 024°01'1211.6
2014-Jul-24 11:33N 59°46' E 024°24'1211.7
2014-Jul-24 10:33N 59°49' E 024°46'1211.6
2014-Jul-24 09:33N 59°51' E 025°09'1411.8
2014-Jul-24 08:21N 59°54' E 025°36'911.7
2014-Jul-24 07:33N 59°57' E 025°55'1110.7
2014-Jul-24 06:33N 59°59' E 026°15'1211.7
2014-Jul-24 05:33N 60°01' E 026°38'1211.5
2014-Jul-24 04:33N 59°59' E 027°01'1111.3
2014-Jul-24 03:33N 60°05' E 027°21'1211.7
2014-Jul-24 02:32N 60°11' E 027°41'1110.8
2014-Jul-24 01:33N 60°10' E 028°03'6211.5
2014-Jul-23 20:11N 59°55' E 030°02'5 8.5
2014-Jul-23 19:33N 59°54' E 030°13'3 2.6
2014-Jul-23 18:33N 59°56' E 030°16'0 0.0
2014-Jul-23 17:33N 59°56' E 030°16'0 0.0
2014-Jul-23 16:33N 59°56' E 030°16'0 0.0
2014-Jul-23 15:30N 59°56' E 030°16'0 0.0
2014-Jul-23 14:33N 59°56' E 030°16'0 0.0
2014-Jul-23 13:33N 59°56' E 030°16'0 0.0
2014-Jul-23 12:33N 59°56' E 030°16'0 0.0
2014-Jul-23 11:33N 59°56' E 030°16'0 0.0
2014-Jul-23 10:33N 59°56' E 030°16'0 0.0
2014-Jul-23 09:33N 59°56' E 030°16'0 0.0
2014-Jul-23 08:33N 59°56' E 030°16'0 0.0
2014-Jul-23 07:33N 59°56' E 030°16'0 0.0
2014-Jul-23 06:33N 59°56' E 030°16'0 0.0
2014-Jul-23 05:24N 59°56' E 030°16'0 0.0
2014-Jul-23 04:33N 59°56' E 030°16'0 0.0
2014-Jul-23 03:33N 59°56' E 030°16'0 0.0
2014-Jul-23 02:33N 59°56' E 030°16'0 0.0
2014-Jul-23 01:33N 59°56' E 030°16'0 0.0
2014-Jul-23 00:30N 59°56' E 030°16'0 0.0
2014-Jul-22 23:33N 59°56' E 030°16'0 0.0
2014-Jul-22 22:33N 59°56' E 030°16'0 0.0
2014-Jul-22 21:33N 59°56' E 030°16'0 0.0
2014-Jul-22 20:33N 59°56' E 030°16'0 0.0
2014-Jul-22 19:30N 59°56' E 030°16'0 0.0
2014-Jul-22 18:33N 59°56' E 030°16'0 0.0
2014-Jul-22 17:33N 59°56' E 030°16'0 0.0
2014-Jul-22 16:33N 59°56' E 030°16'0 0.0
2014-Jul-22 15:33N 59°56' E 030°16'0 0.0
2014-Jul-22 14:33N 59°56' E 030°16'0 0.0
2014-Jul-22 13:33N 59°56' E 030°16'0 0.0
2014-Jul-22 12:33N 59°56' E 030°16'0 0.0
2014-Jul-22 11:33N 59°56' E 030°16'0 0.0
2014-Jul-22 10:33N 59°56' E 030°16'0 0.0
2014-Jul-22 09:33N 59°56' E 030°16'0 0.0
2014-Jul-22 08:33N 59°56' E 030°16'0 0.0
2014-Jul-22 07:33N 59°56' E 030°16'0 0.0
2014-Jul-22 06:32N 59°56' E 030°16'0 0.0
2014-Jul-22 05:32N 59°56' E 030°16'0 0.0
2014-Jul-22 04:32N 59°56' E 030°16'1 1.1
2014-Jul-22 03:33N 59°55' E 030°15'6 5.7
2014-Jul-22 02:31N 59°55' E 030°04'7414.1
2014-Jul-21 21:16N 60°08' E 027°38'1216.9
2014-Jul-21 20:33N 60°02' E 027°18'416.6
2014-Jul-21 20:18N 59°60' E 027°11'1216.0
2014-Jul-21 19:33N 59°59' E 026°47'1817.0
2014-Jul-21 18:31N 59°56' E 026°12'  
Track history (hours):
 
Tides and Currents Weather Stations Pressure Air Temp Water Temp Dewpoint Dewpoint Depression Visibility Wind Speed Wind Dir Waves Ship Positions

Christina O

Operator: V Ships Leisure SAM

Last reported at 2014-Jul-31 17:33 UTC. Time now 2014-Jul-31 17:41 UTC.
Position N 59°56' E 030°17'.

Length 186 m; draft 6.1 m.

Type: Ship. MMSI: 308322000.

Date/timePositionNaut miles runAvg speedWind from/ knotsBaromVisibWave heightAir tempDewpointWater temp
2014-Jul-31 17:33N 59°56' E 030°17'0 0.0
2014-Jul-31 16:33N 59°56' E 030°17'0 0.0
2014-Jul-31 15:33N 59°56' E 030°17'0 0.0
2014-Jul-31 14:33N 59°56' E 030°17'0 0.0
2014-Jul-31 13:33N 59°56' E 030°17'0 0.0
2014-Jul-31 12:33N 59°56' E 030°17'0 0.0
2014-Jul-31 11:33N 59°56' E 030°17'0 0.0
2014-Jul-31 10:33N 59°56' E 030°17'0 0.0
2014-Jul-31 09:33N 59°56' E 030°17'0 0.0
2014-Jul-31 08:33N 59°56' E 030°17'0 0.0
2014-Jul-31 07:33N 59°56' E 030°17'0 0.0
2014-Jul-31 06:33N 59°56' E 030°17'0 0.0
2014-Jul-31 05:33N 59°56' E 030°17'0 0.0
2014-Jul-31 04:33N 59°56' E 030°17'1 1.1
2014-Jul-31 03:33N 59°55' E 030°16'6 5.6
2014-Jul-31 02:26N 59°55' E 030°04'7711.2
2014-Jul-30 19:31N 60°06' E 027°30'1414.7
2014-Jul-30 18:33N 59°59' E 027°05'1413.9
2014-Jul-30 17:34N 59°60' E 026°38'1414.4
2014-Jul-30 16:33N 59°56' E 026°10'1413.9
2014-Jul-30 15:33N 59°52' E 025°43'1413.7
2014-Jul-30 14:31N 59°57' E 025°16'1212.4
2014-Jul-30 13:34N 60°04' E 024°58'5 0.2
2014-Jul-29 13:33N 60°10' E 024°58'7 7.2
2014-Jul-29 12:33N 60°03' E 024°58'1111.3
2014-Jul-29 11:33N 59°52' E 024°50'1212.1
2014-Jul-29 10:33N 59°45' E 024°31'1413.9
2014-Jul-29 09:33N 59°41' E 024°04'1413.6
2014-Jul-29 08:33N 59°36' E 023°39'1413.7
2014-Jul-29 07:33N 59°31' E 023°14'1413.8
2014-Jul-29 06:33N 59°27' E 022°48'4713.4
2014-Jul-29 03:04N 58°57' E 021°38'913.4
2014-Jul-29 02:22N 58°48' E 021°30'1113.6
2014-Jul-29 01:33N 58°38' E 021°20'1413.7
2014-Jul-29 00:33N 58°25' E 021°12'32 1.1
2014-Jul-27 18:33N 57°58' E 020°39'8014.5
2014-Jul-27 13:03N 57°40' E 018°13'2 2.5
2014-Jul-27 12:19N 57°38' E 018°16'0 0.0
2014-Jul-27 10:25N 57°38' E 018°16'0 0.0
2014-Jul-27 09:33N 57°38' E 018°16'0 0.0
2014-Jul-27 08:33N 57°38' E 018°16'0 0.0
2014-Jul-27 07:24N 57°38' E 018°16'0 0.0
2014-Jul-27 06:33N 57°38' E 018°16'0 0.0
2014-Jul-27 05:33N 57°38' E 018°16'7 6.8
2014-Jul-27 04:33N 57°43' E 018°07'3411.2
2014-Jul-27 01:29N 58°15' E 018°30'1011.1
2014-Jul-27 00:33N 58°25' E 018°37'1111.1
2014-Jul-26 23:33N 58°35' E 018°46'1111.2
2014-Jul-26 22:34N 58°45' E 018°55'1111.1
2014-Jul-26 21:33N 58°55' E 019°04'1111.0
2014-Jul-26 20:32N 59°06' E 019°10'33 7.6
2014-Jul-26 16:16N 59°20' E 018°13'3 3.8
2014-Jul-26 15:32N 59°21' E 018°08'0 0.0
2014-Jul-26 14:32N 59°21' E 018°08'0 0.0
2014-Jul-26 13:33N 59°21' E 018°08'0 0.0
2014-Jul-26 12:33N 59°21' E 018°08'0 0.0
2014-Jul-26 11:34N 59°21' E 018°08'0 0.0
2014-Jul-26 10:33N 59°21' E 018°08'0 0.0
2014-Jul-26 09:33N 59°21' E 018°08'0 0.0
2014-Jul-26 08:33N 59°21' E 018°08'0 0.0
2014-Jul-26 07:33N 59°21' E 018°08'0 0.0
2014-Jul-26 06:33N 59°21' E 018°08'0 0.0
2014-Jul-26 05:33N 59°21' E 018°08'0 0.0
2014-Jul-26 04:33N 59°21' E 018°08'0 0.0
2014-Jul-26 03:33N 59°21' E 018°08'0 0.0
2014-Jul-26 02:33N 59°21' E 018°08'0 0.0
2014-Jul-26 01:33N 59°21' E 018°08'0 0.0
2014-Jul-26 00:34N 59°21' E 018°08'0 0.0
2014-Jul-25 23:33N 59°21' E 018°08'0 0.0
2014-Jul-25 22:33N 59°21' E 018°08'0 0.0
2014-Jul-25 21:33N 59°21' E 018°08'0 0.0
2014-Jul-25 20:33N 59°21' E 018°08'0 0.0
2014-Jul-25 19:34N 59°21' E 018°08'0 0.0
2014-Jul-25 18:33N 59°21' E 018°08'0 0.0
2014-Jul-25 17:33N 59°21' E 018°08'2 2.0
2014-Jul-25 16:32N 59°19' E 018°05'0 0.0
2014-Jul-25 15:32N 59°19' E 018°05'0 0.0
2014-Jul-25 14:32N 59°19' E 018°05'0 0.0
2014-Jul-25 13:32N 59°19' E 018°05'0 0.0
2014-Jul-25 12:32N 59°19' E 018°05'0 0.0
2014-Jul-25 11:32N 59°19' E 018°05'0 0.0
2014-Jul-25 10:32N 59°19' E 018°05'0 0.0
2014-Jul-25 09:32N 59°19' E 018°05'0 0.0
2014-Jul-25 08:32N 59°19' E 018°05'0 0.0
2014-Jul-25 07:32N 59°19' E 018°05'0 0.0
2014-Jul-25 06:32N 59°19' E 018°05'0 0.0
2014-Jul-25 05:33N 59°19' E 018°05'8 8.2
2014-Jul-25 04:33N 59°23' E 018°20'6 5.3
2014-Jul-25 03:29N 59°26' E 018°29'1111.8
2014-Jul-25 02:33N 59°21' E 018°47'1312.7
2014-Jul-25 01:32N 59°14' E 019°09'1311.8
2014-Jul-25 00:24N 59°16' E 019°34'1011.7
2014-Jul-24 23:33N 59°18' E 019°53'1211.8
2014-Jul-24 22:33N 59°20' E 020°16'1211.8
2014-Jul-24 21:32N 59°22' E 020°39'1211.6
2014-Jul-24 20:33N 59°24' E 021°01'1111.7
2014-Jul-24 19:33N 59°26' E 021°24'1211.6
2014-Jul-24 18:33N 59°27' E 021°47'1211.8
2014-Jul-24 17:33N 59°29' E 022°09'1212.0
2014-Jul-24 16:33N 59°31' E 022°33'1111.4
2014-Jul-24 15:33N 59°34' E 022°54'1211.6
2014-Jul-24 14:33N 59°37' E 023°17'1211.7
2014-Jul-24 13:33N 59°40' E 023°39'1211.8
2014-Jul-24 12:33N 59°43' E 024°01'1211.6
2014-Jul-24 11:33N 59°46' E 024°24'1211.7
2014-Jul-24 10:33N 59°49' E 024°46'1211.6
2014-Jul-24 09:33N 59°51' E 025°09'1411.8
2014-Jul-24 08:21N 59°54' E 025°36'911.7
2014-Jul-24 07:33N 59°57' E 025°55'1110.7
2014-Jul-24 06:33N 59°59' E 026°15'1211.7
2014-Jul-24 05:33N 60°01' E 026°38'1211.5
2014-Jul-24 04:33N 59°59' E 027°01'1111.3
2014-Jul-24 03:33N 60°05' E 027°21'1211.7
2014-Jul-24 02:32N 60°11' E 027°41'1110.8
2014-Jul-24 01:33N 60°10' E 028°03'6211.5
2014-Jul-23 20:11N 59°55' E 030°02'5 8.5
2014-Jul-23 19:33N 59°54' E 030°13'3 2.6
2014-Jul-23 18:33N 59°56' E 030°16'0 0.0
2014-Jul-23 17:33N 59°56' E 030°16'0 0.0
2014-Jul-23 16:33N 59°56' E 030°16'0 0.0
2014-Jul-23 15:30N 59°56' E 030°16'0 0.0
2014-Jul-23 14:33N 59°56' E 030°16'0 0.0
2014-Jul-23 13:33N 59°56' E 030°16'0 0.0
2014-Jul-23 12:33N 59°56' E 030°16'0 0.0
2014-Jul-23 11:33N 59°56' E 030°16'0 0.0
2014-Jul-23 10:33N 59°56' E 030°16'0 0.0
2014-Jul-23 09:33N 59°56' E 030°16'0 0.0
2014-Jul-23 08:33N 59°56' E 030°16'0 0.0
2014-Jul-23 07:33N 59°56' E 030°16'0 0.0
2014-Jul-23 06:33N 59°56' E 030°16'0 0.0
2014-Jul-23 05:24N 59°56' E 030°16'0 0.0
2014-Jul-23 04:33N 59°56' E 030°16'0 0.0
2014-Jul-23 03:33N 59°56' E 030°16'0 0.0
2014-Jul-23 02:33N 59°56' E 030°16'0 0.0
2014-Jul-23 01:33N 59°56' E 030°16'0 0.0
2014-Jul-23 00:30N 59°56' E 030°16'0 0.0
2014-Jul-22 23:33N 59°56' E 030°16'0 0.0
2014-Jul-22 22:33N 59°56' E 030°16'0 0.0
2014-Jul-22 21:33N 59°56' E 030°16'0 0.0
2014-Jul-22 20:33N 59°56' E 030°16'0 0.0
2014-Jul-22 19:30N 59°56' E 030°16'0 0.0
2014-Jul-22 18:33N 59°56' E 030°16'0 0.0
2014-Jul-22 17:33N 59°56' E 030°16'0 0.0
2014-Jul-22 16:33N 59°56' E 030°16'0 0.0
2014-Jul-22 15:33N 59°56' E 030°16'0 0.0
2014-Jul-22 14:33N 59°56' E 030°16'0 0.0
2014-Jul-22 13:33N 59°56' E 030°16'0 0.0
2014-Jul-22 12:33N 59°56' E 030°16'0 0.0
2014-Jul-22 11:33N 59°56' E 030°16'0 0.0
2014-Jul-22 10:33N 59°56' E 030°16'0 0.0
2014-Jul-22 09:33N 59°56' E 030°16'0 0.0
2014-Jul-22 08:33N 59°56' E 030°16'0 0.0
2014-Jul-22 07:33N 59°56' E 030°16'0 0.0
2014-Jul-22 06:32N 59°56' E 030°16'0 0.0
2014-Jul-22 05:32N 59°56' E 030°16'0 0.0
2014-Jul-22 04:32N 59°56' E 030°16'1 1.1
2014-Jul-22 03:33N 59°55' E 030°15'6 5.7
2014-Jul-22 02:31N 59°55' E 030°04'7414.1
2014-Jul-21 21:16N 60°08' E 027°38'1216.9
2014-Jul-21 20:33N 60°02' E 027°18'416.6
2014-Jul-21 20:18N 59°60' E 027°11'1216.0
2014-Jul-21 19:33N 59°59' E 026°47'1817.0
2014-Jul-21 18:31N 59°56' E 026°12'  

Dump ship's entire track history